Terminal Aerodrome Forecast
Issued by NWS

Home | Current Version | Previous Version | Text Only | Print | Product List | Glossary On
Versions: 1 2 3 4 5 6 7 8 9 10 11 12 13 14 15 16 17 18 19 20 21
000
FTUS43 KDLH 202300
TAFHYR
TAF
KHYR 202336Z 2100/2124 VRB03KT P6SM SKC
     FM211500 18008G12KT P6SM SCT040 BKN100
     FM212000 19010G22KT P6SM SCT025 OVC080=

USA.gov is the U.S. government's official web portal to all federal, state and local government web resources and services.